Hauptseite
METAR-TAF:

METAR-TAF

Flughäfen :

Fliegerhorst Nörvenich

Nörvenich, Deutschland

Breite: 50-50N, Länge: 006-40E, Höhe: 118 m

Beobachtung

Neuester Wetterbericht von vor 52 Minuten, um 09:20 UTC
Wind 6 kt aus Südost
Temperatur 6°C
Luftfeuchtigkeit 81%
Luftdruck 1028 hPa
Sichtweite 10 km oder mehr
Leicht bewölkt in der Höhe von 24000 ft

METAR: ETNN 160920Z 13006KT 9999 FEW240 06/03 Q1028 BLU+BLU+

Zeit: 11:12 (10:12 UTC)

Prognose

Neuester Wetterbericht von vor 1 Stunde und 37 Minuten, um 08:35 UTC
Gültige Prognose vom 16 um 09 UTC bis 16 um 18 UTC
Wind 8 kt aus Südost
Sichtweite 10 km oder mehr
Aufgelockert bewölkt in der Höhe von 24000 ft

TAF: ETNN 160835Z 1609/1618 13008KT 9999 NSW SCT240 BY ETGL

Wetterbeobachtungen und Prognosen von mehr als 4000 Flughäfen (METAR und TAF Bericht).

Die verfügbaren Stationen werden durch gelbe und rote Markierungen auf der Karte dargestellt.

Führen Sie die Maus auf sie, um den Namen der Station zu sehen.

Darauf klicken, um die Beobachtung von Wetterbeobachtungen und Prognosen zu sehen.

Um die Karte zu ändern : klicken Sie auf den grünen Tasten mit einem schwarzen Kreuz Zum Vergrößern, auf den grünen Button mit einem Gedankenstrich zu verkleinern, oder auf die grünen Pfeile für benachbarte Karten.


METAR-TAF: